createdAt,value
2022-09-13T16:13:59.908Z,15.40
2022-09-13T16:16:26.743Z,14.48
2022-09-13T16:18:53.512Z,14.75
2022-09-13T16:21:20.197Z,14.90
2022-09-13T16:23:46.923Z,13.63
2022-09-13T16:26:13.852Z,14.73
2022-09-13T16:28:40.531Z,14.93
2022-09-13T16:31:07.335Z,15.30
2022-09-13T16:33:34.810Z,14.40
2022-09-13T16:36:02.546Z,14.68
2022-09-13T16:38:29.487Z,12.88
2022-09-13T16:40:56.212Z,14.00
2022-09-13T16:43:22.920Z,14.90
2022-09-13T16:45:51.570Z,14.98
2022-09-13T16:48:18.381Z,14.80
2022-09-13T16:50:45.264Z,14.55
2022-09-13T16:53:11.954Z,14.20
2022-09-13T16:55:38.709Z,13.98
2022-09-13T16:58:05.430Z,12.73
2022-09-13T17:00:32.158Z,14.52
2022-09-13T17:02:59.114Z,14.27
2022-09-13T17:05:26.065Z,14.10
2022-09-13T17:07:53.242Z,14.48
2022-09-13T17:10:20.666Z,13.10
2022-09-13T17:12:47.385Z,14.48
2022-09-13T17:15:14.264Z,13.60
2022-09-13T17:17:40.897Z,14.32
2022-09-13T17:20:10.498Z,14.60
2022-09-13T17:22:37.156Z,15.30
2022-09-13T17:25:07.633Z,15.02
2022-09-13T17:27:34.921Z,19.27
2022-09-13T17:30:02.579Z,16.20
2022-09-13T17:32:29.227Z,15.07
2022-09-13T17:34:55.924Z,15.30
2022-09-13T17:37:22.537Z,14.82
2022-09-13T17:39:49.437Z,15.15
2022-09-13T17:42:18.132Z,15.57
2022-09-13T17:44:48.107Z,15.70
2022-09-13T17:47:15.286Z,14.50
2022-09-13T17:49:41.976Z,15.77
2022-09-13T17:52:08.593Z,15.00
2022-09-13T17:54:35.243Z,15.40
2022-09-13T17:57:02.037Z,15.23
2022-09-13T17:59:28.877Z,15.20
2022-09-13T18:01:58.048Z,14.85
2022-09-13T18:04:25.064Z,11.60
2022-09-13T18:06:53.709Z,14.75
2022-09-13T18:09:21.231Z,13.95
2022-09-13T18:11:47.925Z,15.95
2022-09-13T18:14:16.505Z,15.10
2022-09-13T18:16:44.097Z,15.07
2022-09-13T18:19:11.678Z,14.20
2022-09-13T18:21:38.365Z,14.55
2022-09-13T18:24:05.466Z,14.80
2022-09-13T18:26:32.741Z,14.75
2022-09-13T18:29:05.212Z,14.82
2022-09-13T18:31:33.400Z,15.05
2022-09-13T18:34:02.872Z,14.82
2022-09-13T18:36:30.906Z,15.50
2022-09-13T18:38:58.091Z,15.68
2022-09-13T18:41:31.378Z,16.27
2022-09-13T18:43:59.797Z,16.83
2022-09-13T18:46:30.462Z,16.75
2022-09-13T18:48:58.330Z,16.77
2022-09-13T18:51:30.529Z,16.70
2022-09-13T18:53:59.280Z,16.45
2022-09-13T18:56:27.136Z,16.90
2022-09-13T18:58:55.545Z,17.60
2022-09-13T19:01:25.227Z,16.67
2022-09-13T19:03:57.487Z,16.98
2022-09-13T19:06:26.835Z,16.58
2022-09-13T19:08:55.811Z,16.48
2022-09-13T19:11:45.145Z,16.88
2022-09-13T19:14:14.246Z,16.17
2022-09-13T19:16:41.035Z,16.45
2022-09-13T19:19:07.769Z,16.33
2022-09-13T19:21:34.790Z,16.85
2022-09-13T19:24:06.468Z,16.45
2022-09-13T19:26:38.351Z,16.58
2022-09-13T19:29:07.248Z,17.02
2022-09-13T19:31:36.777Z,16.85
2022-09-13T19:34:06.256Z,16.70
2022-09-13T19:36:35.446Z,16.35
2022-09-13T19:39:02.831Z,16.05
2022-09-13T19:41:29.883Z,15.23
2022-09-13T19:44:00.218Z,14.68
2022-09-13T19:46:31.667Z,15.95
2022-09-13T19:49:01.102Z,16.67
2022-09-13T19:51:51.342Z,15.68
2022-09-13T19:56:46.060Z,15.75
2022-09-13T19:59:15.804Z,16.33
2022-09-13T20:01:44.212Z,16.40
2022-09-13T20:04:14.531Z,16.50
2022-09-13T20:06:44.242Z,16.40
2022-09-13T20:09:12.785Z,16.35
2022-09-13T20:11:42.588Z,15.80
2022-09-13T20:14:09.647Z,15.90
2022-09-13T20:16:38.517Z,15.85
2022-09-13T20:19:23.656Z,15.55
2022-09-13T20:21:53.028Z,16.00
2022-09-13T20:24:20.235Z,15.48
2022-09-13T20:26:47.846Z,15.80
2022-09-13T20:29:15.093Z,15.32
2022-09-13T20:31:41.915Z,15.93
2022-09-13T20:34:09.196Z,16.10
2022-09-13T20:36:37.039Z,15.52
2022-09-13T20:39:06.422Z,15.75
2022-09-13T20:41:33.271Z,15.60
2022-09-13T20:44:01.007Z,16.15
2022-09-13T20:46:29.260Z,15.60
2022-09-13T20:48:56.099Z,15.65
2022-09-13T20:51:25.508Z,15.20
2022-09-13T20:53:56.450Z,15.10
2022-09-13T20:58:57.492Z,15.02
2022-09-13T21:01:25.624Z,15.35
2022-09-13T21:03:54.096Z,14.65
2022-09-13T21:06:23.649Z,15.35
2022-09-13T21:08:50.899Z,14.57
2022-09-13T21:11:30.120Z,14.40
2022-09-13T21:14:01.299Z,15.20
2022-09-13T21:16:31.111Z,15.07
2022-09-13T21:18:58.093Z,14.35
2022-09-13T21:21:34.027Z,15.07
2022-09-13T21:24:04.545Z,15.25
2022-09-13T21:26:31.833Z,15.52
2022-09-13T21:28:58.806Z,15.55
2022-09-13T21:31:28.331Z,14.88
2022-09-13T21:34:04.111Z,14.57
2022-09-13T21:36:34.707Z,15.02
2022-09-13T21:39:02.359Z,15.60
2022-09-13T21:41:29.108Z,14.80
2022-09-13T21:43:55.757Z,15.60
2022-09-13T21:46:27.743Z,15.10
2022-09-13T21:48:57.441Z,14.93
2022-09-13T21:51:33.643Z,14.85
2022-09-13T21:54:02.243Z,15.25
2022-09-13T21:56:30.571Z,15.93
2022-09-13T21:59:02.863Z,14.90
2022-09-13T22:01:32.451Z,14.02
2022-09-13T22:04:00.822Z,15.05
2022-09-13T22:06:32.658Z,14.23
2022-09-13T22:09:05.356Z,14.23
2022-09-13T22:11:38.728Z,15.00
2022-09-13T22:14:06.958Z,13.93
2022-09-13T22:16:37.087Z,14.80
2022-09-13T22:19:09.531Z,14.63
2022-09-13T22:21:40.087Z,14.93
2022-09-13T22:24:10.015Z,15.00
2022-09-13T22:26:39.737Z,14.90
2022-09-13T22:29:07.615Z,15.05
2022-09-13T22:31:36.875Z,15.57
2022-09-13T22:34:05.101Z,15.55
2022-09-13T22:36:32.697Z,15.40
2022-09-13T22:38:59.550Z,15.15
2022-09-13T22:41:31.590Z,15.57
2022-09-13T22:43:59.942Z,15.00
2022-09-13T22:46:32.675Z,15.45
2022-09-13T22:48:59.684Z,16.13
2022-09-13T22:51:26.843Z,15.60
2022-09-13T22:53:54.633Z,15.38
2022-09-13T22:56:24.349Z,15.68
2022-09-13T22:59:00.713Z,14.75
2022-09-13T23:01:29.572Z,14.63
2022-09-13T23:03:56.879Z,14.40
2022-09-13T23:06:25.471Z,14.38
2022-09-13T23:08:54.458Z,14.55
2022-09-13T23:11:24.266Z,14.70
2022-09-13T23:13:52.689Z,14.30
2022-09-13T23:16:25.216Z,14.48
2022-09-13T23:18:53.050Z,14.30
2022-09-13T23:21:22.117Z,15.25
2022-09-13T23:23:49.196Z,14.98
2022-09-13T23:26:18.807Z,15.27
2022-09-13T23:28:51.133Z,14.88
2022-09-13T23:31:20.613Z,15.35
2022-09-13T23:33:50.014Z,15.23
2022-09-13T23:36:19.963Z,15.05
2022-09-13T23:38:49.179Z,15.67
2022-09-13T23:41:16.491Z,15.75
2022-09-13T23:43:43.398Z,15.80
2022-09-13T23:46:10.679Z,15.50
2022-09-13T23:48:38.064Z,14.85
2022-09-13T23:51:10.653Z,16.15
2022-09-13T23:53:38.161Z,15.80
2022-09-13T23:56:07.554Z,15.00
2022-09-13T23:58:35.475Z,15.10
